Time;durP1;ratioP1;P1;durP2;ratioP2;P2;SDS_P1;SDS_P2;PMS_P1;PMS_P2;Temp;Humidity;BMP_temperature;BMP_pressure;BME280_temperature;BME280_humidity;BME280_pressure;Samples;Min_cycle;Max_cycle;Signal;HPM_P1;HPM_P2
2022/12/23 00:00:56;;;;;;;123.40;62.83;;;;;;;5.87;100.00;100139.59;5072642;28;20032;-69
2022/12/23 00:03:22;;;;;;;131.73;64.95;;;;;;;5.89;100.00;100135.03;5072660;28;20025;-69
2022/12/23 00:05:47;;;;;;;128.70;64.32;;;;;;;5.59;100.00;100083.97;5072643;28;20324;-69
2022/12/23 00:08:13;;;;;;;133.40;65.00;;;;;;;5.89;100.00;100128.84;5072478;28;20142;-69
2022/12/23 00:10:39;;;;;;;118.95;64.05;;;;;;;5.84;100.00;100123.84;5072292;28;20103;-69
2022/12/23 00:15:49;;;;;;;127.80;62.92;;;;;;;5.83;100.00;100110.66;5072633;28;20031;-69
2022/12/23 00:18:15;;;;;;;123.55;63.53;;;;;;;5.94;100.00;100129.38;5072528;28;20385;-69
2022/12/23 00:20:40;;;;;;;118.00;59.78;;;;;;;5.96;100.00;100130.09;5072180;28;20020;-69
2022/12/23 00:23:06;;;;;;;111.00;56.83;;;;;;;5.92;100.00;100120.63;5072128;28;20033;-69
2022/12/23 00:25:45;;;;;;;117.82;59.53;;;;;;;5.93;100.00;100119.69;5071975;28;20100;-70
2022/12/23 00:28:10;;;;;;;119.82;60.13;;;;;;;6.05;100.00;100140.09;5072124;28;20024;-69
2022/12/23 00:30:48;;;;;;;110.60;58.42;;;;;;;6.06;100.00;100163.94;5070450;28;20162;-70
2022/12/23 00:33:16;;;;;;;113.00;57.83;;;;;;;6.50;100.00;100206.00;5071739;28;20138;-69
2022/12/23 00:35:42;;;;;;;110.95;55.78;;;;;;;6.70;100.00;100208.91;5070584;28;20542;-70
2022/12/23 00:38:08;;;;;;;111.95;57.15;;;;;;;6.54;100.00;100181.69;5071524;28;20124;-70
2022/12/23 00:43:17;;;;;;;105.88;55.20;;;;;;;6.28;100.00;100187.19;5071318;28;20110;-69
2022/12/23 00:45:43;;;;;;;117.18;57.75;;;;;;;6.34;100.00;100189.41;5069742;28;20028;-70
2022/12/23 00:50:52;;;;;;;108.97;56.05;;;;;;;6.34;100.00;100168.97;5071647;28;20112;-70
2022/12/23 00:53:19;;;;;;;119.40;58.75;;;;;;;6.36;100.00;100171.53;5071152;28;20037;-70
2022/12/23 00:55:49;;;;;;;108.65;56.80;;;;;;;6.20;100.00;100155.81;5071338;28;20056;-70
2022/12/23 00:58:16;;;;;;;121.68;59.40;;;;;;;6.23;100.00;100158.25;5071397;28;20027;-70
2022/12/23 01:06:09;;;;;;;114.75;58.38;;;;;;;6.21;100.00;100165.50;5071211;28;20086;-70
2022/12/23 01:08:35;;;;;;;116.72;59.17;;;;;;;6.16;100.00;100157.00;5071080;28;20435;-70
2022/12/23 01:11:05;;;;;;;115.30;58.40;;;;;;;6.18;100.00;100146.22;5069891;28;20059;-70
2022/12/23 01:13:32;;;;;;;112.57;56.85;;;;;;;5.96;100.00;100117.66;5070603;28;20073;-70
2022/12/23 01:16:03;;;;;;;109.28;56.40;;;;;;;6.19;100.00;100153.28;5069652;28;20024;-70
2022/12/23 01:18:29;;;;;;;111.82;57.38;;;;;;;6.17;100.00;100153.38;5071245;28;20393;-70
2022/12/23 01:20:54;;;;;;;116.60;58.75;;;;;;;6.16;100.00;100140.19;5070734;28;20029;-70
2022/12/23 01:23:20;;;;;;;113.30;58.15;;;;;;;6.11;100.00;100135.19;5070926;28;20029;-70
2022/12/23 01:25:47;;;;;;;114.68;58.65;;;;;;;6.14;100.00;100144.75;5069412;28;20107;-70
2022/12/23 01:28:12;;;;;;;105.43;56.10;;;;;;;6.21;100.00;100152.19;5070478;28;20493;-70
2022/12/23 01:30:38;;;;;;;115.22;59.28;;;;;;;6.19;100.00;100140.78;5069358;28;20043;-70
2022/12/23 01:33:04;;;;;;;111.80;61.35;;;;;;;6.27;100.00;100142.91;5070664;28;20029;-70
2022/12/23 01:35:29;;;;;;;121.43;59.63;;;;;;;6.40;100.00;100152.56;5069326;28;20032;-70
2022/12/23 01:37:55;;;;;;;122.45;63.17;;;;;;;6.34;100.00;100153.00;5070602;28;20036;-70
2022/12/23 01:40:20;;;;;;;108.78;57.63;;;;;;;6.19;100.00;100135.47;5070412;28;20028;-70
2022/12/23 01:42:46;;;;;;;125.95;63.50;;;;;;;6.16;100.00;100133.03;5070015;28;20507;-70
2022/12/23 01:45:20;;;;;;;112.43;58.15;;;;;;;6.26;100.00;100155.34;5070447;28;20047;-70
2022/12/23 01:48:00;;;;;;;120.00;60.08;;;;;;;6.28;100.00;100152.56;5070515;28;20032;-70
2022/12/23 01:50:35;;;;;;;127.18;66.00;;;;;;;6.37;100.00;100146.59;5070349;28;20095;-70
2022/12/23 01:53:09;;;;;;;128.63;63.55;;;;;;;6.37;100.00;100160.78;5070174;28;20169;-70
2022/12/23 01:55:55;;;;;;;121.35;61.88;;;;;;;6.21;100.00;100114.06;5069792;28;20032;-70
2022/12/23 01:58:41;;;;;;;119.80;61.15;;;;;;;6.16;100.00;100127.69;5069976;28;20112;-70
2022/12/23 02:03:54;;;;;;;120.72;60.45;;;;;;;6.21;100.00;100136.22;5070962;28;20078;-70
2022/12/23 02:09:15;;;;;;;119.40;60.63;;;;;;;6.17;100.00;100131.22;5070896;28;20094;-70
2022/12/23 02:11:56;;;;;;;124.38;62.55;;;;;;;6.16;100.00;100135.69;5068862;28;20312;-70
2022/12/23 02:18:07;;;;;;;119.40;59.95;;;;;;;6.18;100.00;100131.13;5070402;28;20043;-70
2022/12/23 02:21:03;;;;;;;128.60;64.13;;;;;;;6.10;100.00;100120.16;5068636;28;20068;-70
2022/12/23 02:23:47;;;;;;;119.25;61.15;;;;;;;6.18;100.00;100132.91;5069201;28;20045;-70
2022/12/23 02:26:28;;;;;;;118.50;62.38;;;;;;;6.20;100.00;100137.19;5070123;28;20030;-70
2022/12/23 02:29:14;;;;;;;130.02;67.47;;;;;;;6.36;100.00;100137.75;5070223;28;20342;-70
2022/12/23 02:31:42;;;;;;;130.00;65.00;;;;;;;6.31;100.00;100131.91;5070522;28;20025;-70
2022/12/23 02:34:34;;;;;;;125.85;62.50;;;;;;;6.30;100.00;100118.72;5070065;28;20089;-70
2022/12/23 02:37:16;;;;;;;131.60;67.10;;;;;;;6.25;100.00;100116.38;5068657;28;20480;-70
2022/12/23 02:39:50;;;;;;;124.45;63.92;;;;;;;6.17;100.00;100104.59;5070156;28;20036;-70
2022/12/23 02:42:19;;;;;;;122.97;65.50;;;;;;;6.21;100.00;100114.91;5069943;28;20087;-70
2022/12/23 02:45:08;;;;;;;132.90;66.22;;;;;;;6.25;100.00;100118.19;5070087;28;20072;-70
2022/12/23 02:47:39;;;;;;;135.38;68.03;;;;;;;6.24;100.00;100116.50;5069808;28;20047;-70
2022/12/23 02:50:13;;;;;;;132.40;66.43;;;;;;;6.18;100.00;100098.31;5070278;28;20381;-70
2022/12/23 02:52:43;;;;;;;128.30;64.13;;;;;;;6.26;100.00;100112.75;5069880;28;20431;-70
2022/12/23 02:55:14;;;;;;;136.95;66.75;;;;;;;6.16;100.00;100086.94;5068808;28;20040;-70
2022/12/23 02:57:44;;;;;;;138.15;66.60;;;;;;;6.22;100.00;100097.09;5068622;28;20739;-70
2022/12/23 03:00:11;;;;;;;148.13;69.65;;;;;;;6.11;100.00;100075.75;5069258;28;20531;-70
2022/12/23 03:02:39;;;;;;;137.80;70.32;;;;;;;6.26;100.00;100095.94;5070179;28;20299;-70
2022/12/23 03:05:05;;;;;;;150.40;70.13;;;;;;;6.15;100.00;100075.41;5068723;28;20040;-70
2022/12/23 03:07:36;;;;;;;145.57;71.50;;;;;;;6.33;100.00;100115.81;5070003;28;20025;-70
2022/12/23 03:10:31;;;;;;;147.90;72.32;;;;;;;6.30;100.00;100108.91;5072525;28;20575;-70
2022/12/23 03:13:02;;;;;;;;;;;;;;;6.28;100.00;100102.84;5055474;28;20072;-70
2022/12/23 03:15:32;;;;;;;144.00;69.72;;;;;;;6.36;100.00;100108.44;5073978;28;19920;-70
2022/12/23 03:18:32;;;;;;;146.05;71.32;;;;;;;6.38;100.00;100111.84;5072452;28;20507;-70
2022/12/23 03:21:16;;;;;;;149.27;73.22;;;;;;;6.28;100.00;100084.22;5053830;28;20517;-70
2022/12/23 03:23:50;;;;;;;141.43;70.30;;;;;;;6.40;100.00;100109.06;5072593;28;20036;-70
2022/12/23 03:26:20;;;;;;;;;;;;;;;6.34;100.00;100104.19;5074267;28;20032;-70
2022/12/23 03:29:01;;;;;;;143.15;69.43;;;;;;;6.21;100.00;100072.31;5073726;28;19908;-70
2022/12/23 03:31:30;;;;;;;159.65;75.13;;;;;;;6.24;100.00;100076.56;5073627;28;20357;-70
2022/12/23 03:34:04;;;;;;;158.30;76.43;;;;;;;6.27;100.00;100076.31;5073615;28;20020;-69
2022/12/23 03:36:38;;;;;;;;;;;;;;;6.34;100.00;100091.75;5074140;28;20695;-70
2022/12/23 03:39:08;;;;;;;150.27;72.70;;;;;;;6.25;100.00;100084.44;5073644;28;19955;-69
2022/12/23 03:41:39;;;;;;;155.38;75.47;;;;;;;6.35;100.00;100093.44;5073222;28;20100;-70
2022/12/23 03:44:17;;;;;;;141.32;72.53;;;;;;;6.36;100.00;100103.13;5073532;28;20036;-70
2022/12/23 03:46:50;;;;;;;151.05;76.40;;;;;;;6.27;100.00;100073.66;5073296;28;20039;-70
2022/12/23 03:49:22;;;;;;;152.45;78.07;;;;;;;6.31;100.00;100089.31;5073362;28;20059;-70
2022/12/23 03:51:55;;;;;;;155.02;75.38;;;;;;;6.34;100.00;100083.75;5073086;28;20052;-70
2022/12/23 03:54:27;;;;;;;161.63;78.75;;;;;;;6.21;100.00;100055.47;5072884;28;20123;-70
2022/12/23 03:57:00;;;;;;;160.05;76.30;;;;;;;6.27;100.00;100074.53;5073068;28;20044;-70
2022/12/23 03:59:31;;;;;;;158.57;76.88;;;;;;;6.20;100.00;100065.31;5073245;28;20467;-70
2022/12/23 04:02:05;;;;;;;162.75;78.57;;;;;;;6.32;100.00;100096.31;5072163;28;21092;-70
2022/12/23 04:05:03;;;;;;;177.52;82.28;;;;;;;6.33;100.00;100076.75;5072880;28;20071;-70
2022/12/23 04:07:39;;;;;;;163.05;78.90;;;;;;;6.27;100.00;100063.88;5058237;28;20036;-70
2022/12/23 04:10:06;;;;;;;160.77;78.10;;;;;;;6.18;100.00;100043.25;5073041;28;20031;-70
2022/12/23 04:12:32;;;;;;;173.40;82.57;;;;;;;6.42;100.00;100061.88;5072737;28;20064;-70
2022/12/23 04:14:57;;;;;;;170.48;82.20;;;;;;;6.46;100.00;100066.88;5072810;28;20052;-70
2022/12/23 04:17:23;;;;;;;156.10;77.93;;;;;;;6.45;100.00;100067.81;5072810;28;20024;-71
2022/12/23 04:19:49;;;;;;;170.70;81.95;;;;;;;6.31;100.00;100065.34;5071849;28;20059;-70
2022/12/23 04:22:15;;;;;;;154.38;76.75;;;;;;;6.27;100.00;100073.66;5071440;28;20082;-70
2022/12/23 04:24:41;;;;;;;163.52;79.57;;;;;;;6.28;100.00;100072.69;5072839;28;20036;-70
2022/12/23 04:27:09;;;;;;;167.50;82.43;;;;;;;6.32;100.00;100072.34;5072796;28;20032;-70
2022/12/23 04:29:35;;;;;;;156.88;78.70;;;;;;;6.22;100.00;100078.47;5071255;28;20276;-70
2022/12/23 04:32:00;;;;;;;175.40;79.43;;;;;;;6.11;100.00;100055.31;5070853;28;20013;-70
2022/12/23 04:34:25;;;;;;;159.90;79.40;;;;;;;6.24;100.00;100071.22;5070434;28;20019;-69
2022/12/23 04:36:51;;;;;;;164.05;78.78;;;;;;;6.22;100.00;100079.31;5072015;28;20024;-70
2022/12/23 04:39:16;;;;;;;171.07;79.18;;;;;;;6.20;100.00;100075.09;5071212;28;20031;-70
2022/12/23 04:41:42;;;;;;;162.07;80.00;;;;;;;6.13;100.00;100049.88;5071411;28;20036;-70
2022/12/23 04:44:07;;;;;;;165.32;77.00;;;;;;;6.19;100.00;100074.22;5070171;28;20873;-70
2022/12/23 04:46:32;;;;;;;156.25;79.13;;;;;;;6.09;100.00;100065.22;5068899;28;20035;-70
2022/12/23 04:48:58;;;;;;;150.77;72.93;;;;;;;5.97;100.00;100047.47;5070999;28;20032;-70
2022/12/23 04:51:23;;;;;;;146.13;72.10;;;;;;;6.08;100.00;100071.50;5071436;28;20093;-69
2022/12/23 04:53:49;;;;;;;149.90;72.93;;;;;;;5.86;100.00;100047.41;5069522;28;20102;-70
2022/12/23 04:56:14;;;;;;;162.30;76.65;;;;;;;5.92;100.00;100057.63;5070003;28;20040;-70
2022/12/23 04:58:40;;;;;;;148.65;71.30;;;;;;;6.07;100.00;100079.63;5070717;28;20027;-70
2022/12/23 05:01:08;;;;;;;151.27;75.38;;;;;;;5.95;100.00;100061.88;5070995;28;20109;-70
2022/12/23 05:03:34;;;;;;;167.02;78.15;;;;;;;6.08;100.00;100079.50;5069117;28;20081;-70
2022/12/23 05:06:00;;;;;;;140.18;70.82;;;;;;;6.05;100.00;100082.38;5069624;28;20685;-70
2022/12/23 05:08:25;;;;;;;132.75;70.80;;;;;;;5.92;100.00;100060.28;5070935;28;20067;-70
2022/12/23 05:10:51;;;;;;;170.82;71.03;;;;;;;6.02;100.00;100093.25;5069279;28;20054;-69
2022/12/23 05:13:16;;;;;;;165.70;71.13;;;;;;;5.95;100.00;100077.84;5069460;28;20098;-70
2022/12/23 05:15:47;;;;;;;139.02;70.00;;;;;;;5.98;100.00;100097.09;5070110;28;20036;-70
2022/12/23 05:18:13;;;;;;;156.90;69.45;;;;;;;6.00;100.00;100095.16;5067644;28;20036;-70
2022/12/23 05:20:38;;;;;;;126.22;67.78;;;;;;;5.92;100.00;100092.22;5069990;28;20025;-70
2022/12/23 05:23:04;;;;;;;177.88;67.43;;;;;;;5.91;100.00;100092.34;5069441;28;20024;-70
2022/12/23 05:25:32;;;;;;;126.80;66.68;;;;;;;5.81;100.00;100092.13;5069181;28;20032;-70
2022/12/23 05:27:58;;;;;;;158.80;66.72;;;;;;;5.74;100.00;100098.81;5069287;28;20047;-70
2022/12/23 05:30:23;;;;;;;132.15;67.32;;;;;;;5.64;100.00;100089.81;5070705;28;20020;-70
2022/12/23 05:32:52;;;;;;;121.22;67.05;;;;;;;5.81;100.00;100100.13;5070640;28;20016;-70
2022/12/23 05:35:18;;;;;;;147.93;65.75;;;;;;;5.81;100.00;100107.22;5068766;28;20537;-70
2022/12/23 05:37:43;;;;;;;116.47;62.00;;;;;;;5.84;100.00;100093.75;5070883;28;20024;-70
2022/12/23 05:40:09;;;;;;;117.45;58.47;;;;;;;5.71;100.00;100088.41;5070975;28;20028;-70
2022/12/23 05:42:34;;;;;;;114.20;57.85;;;;;;;5.56;100.00;100081.53;5070339;28;20406;-70
2022/12/23 05:45:00;;;;;;;126.75;60.33;;;;;;;5.64;100.00;100113.75;5070777;28;20082;-70
2022/12/23 05:47:25;;;;;;;114.15;56.97;;;;;;;5.47;100.00;100100.78;5070679;28;20025;-70
2022/12/23 05:49:50;;;;;;;121.40;59.13;;;;;;;5.53;100.00;100120.78;5071248;28;20381;-70
2022/12/23 05:52:16;;;;;;;115.80;58.70;;;;;;;5.41;100.00;100111.84;5069559;28;20048;-70
2022/12/23 05:54:41;;;;;;;113.10;57.80;;;;;;;5.28;100.00;100095.06;5071013;28;20202;-70
2022/12/23 05:57:07;;;;;;;117.13;57.15;;;;;;;5.35;100.00;100112.28;5071234;28;20043;-69
2022/12/23 05:59:32;;;;;;;121.97;60.42;;;;;;;5.38;100.00;100106.75;5070408;28;20032;-70
2022/12/23 06:01:58;;;;;;;125.50;59.22;;;;;;;5.27;100.00;100088.06;5069547;28;20040;-69
2022/12/23 06:04:23;;;;;;;109.50;56.28;;;;;;;5.28;100.00;100088.88;5061355;28;20020;-70
2022/12/23 06:06:49;;;;;;;111.82;57.38;;;;;;;5.30;100.00;100085.19;5069888;28;20025;-69
2022/12/23 06:09:14;;;;;;;113.13;56.90;;;;;;;5.14;100.00;100057.09;5057468;28;20106;-70
2022/12/23 06:11:39;;;;;;;114.45;57.25;;;;;;;5.20;100.00;100091.25;5070553;28;20024;-70
2022/12/23 06:14:06;;;;;;;115.82;57.25;;;;;;;5.23;100.00;100097.19;5070543;28;20020;-69
2022/12/23 06:16:32;;;;;;;115.93;57.55;;;;;;;5.13;100.00;100092.63;5068318;28;20127;-70
2022/12/23 06:18:58;;;;;;;121.45;59.70;;;;;;;5.29;100.00;100130.47;5068630;28;20028;-70
2022/12/23 06:21:24;;;;;;;120.65;56.33;;;;;;;5.14;100.00;100112.91;5069233;28;20032;-70
2022/12/23 06:23:50;;;;;;;122.65;57.33;;;;;;;5.19;100.00;100138.22;5068097;28;20032;-70
2022/12/23 06:26:15;;;;;;;104.00;53.83;;;;;;;5.26;100.00;100144.84;5066503;28;20094;-70
2022/12/23 06:28:41;;;;;;;106.07;54.15;;;;;;;5.22;100.00;100147.81;5065600;28;20032;-70
2022/12/23 06:31:06;;;;;;;116.60;57.17;;;;;;;5.29;100.00;100155.25;5069880;28;20028;-70
2022/12/23 06:33:32;;;;;;;109.20;56.55;;;;;;;5.29;100.00;100155.25;5068414;28;20036;-70
2022/12/23 06:35:57;;;;;;;107.00;55.40;;;;;;;5.25;100.00;100152.94;5060584;28;20028;-69
2022/12/23 06:38:23;;;;;;;113.47;57.13;;;;;;;5.17;100.00;100144.59;5050377;28;20507;-70
2022/12/23 06:40:48;;;;;;;125.20;56.40;;;;;;;5.14;100.00;100143.03;5050244;28;20029;-69
2022/12/23 06:43:14;;;;;;;105.28;52.95;;;;;;;5.23;100.00;100161.00;5049633;28;20052;-70
2022/12/23 06:45:40;;;;;;;104.43;54.13;;;;;;;5.21;100.00;100157.59;5050454;28;20044;-70
2022/12/23 06:48:05;;;;;;;109.80;54.58;;;;;;;5.16;100.00;100143.75;5050179;28;20062;-70
2022/12/23 06:50:31;;;;;;;112.22;53.80;;;;;;;5.19;100.00;100156.84;5050281;28;20075;-70
2022/12/23 06:52:57;;;;;;;106.43;54.03;;;;;;;5.19;100.00;100151.50;5066342;28;20075;-70
2022/12/23 06:55:22;;;;;;;113.53;53.58;;;;;;;5.26;100.00;100166.13;5069703;28;20058;-70
2022/12/23 06:57:48;;;;;;;116.10;54.72;;;;;;;5.17;100.00;100134.84;5070272;28;20021;-70
2022/12/23 07:00:14;;;;;;;100.63;52.78;;;;;;;5.25;100.00;100160.91;5069228;28;20020;-70
2022/12/23 07:02:39;;;;;;;102.50;51.55;;;;;;;5.13;100.00;100128.03;5070227;28;20029;-70
2022/12/23 07:05:05;;;;;;;123.35;52.67;;;;;;;5.17;100.00;100131.31;5070124;28;20499;-70
2022/12/23 07:07:33;;;;;;;103.95;51.97;;;;;;;5.23;100.00;100142.41;5069776;28;20029;-70
2022/12/23 07:09:59;;;;;;;102.25;50.30;;;;;;;5.21;100.00;100141.66;5068685;28;20027;-71
2022/12/23 07:12:24;;;;;;;113.72;52.67;;;;;;;5.09;100.00;100115.91;5069968;28;20025;-71
2022/12/23 07:14:50;;;;;;;102.85;51.03;;;;;;;5.03;100.00;100095.03;5070084;28;20032;-71
2022/12/23 07:17:15;;;;;;;109.43;52.00;;;;;;;5.25;100.00;100136.97;5068730;28;20017;-71
2022/12/23 07:19:41;;;;;;;106.88;52.35;;;;;;;5.15;100.00;100112.81;5069530;28;20024;-71
2022/12/23 07:22:07;;;;;;;115.13;55.38;;;;;;;5.13;100.00;100114.75;5068917;28;20505;-71
2022/12/23 07:24:32;;;;;;;102.32;50.90;;;;;;;5.19;100.00;100105.50;5069826;28;20039;-71
2022/12/23 07:26:58;;;;;;;103.90;52.33;;;;;;;5.24;100.00;100114.84;5070132;28;20017;-71
2022/12/23 07:29:23;;;;;;;109.63;54.78;;;;;;;5.28;100.00;100118.97;5070215;28;20060;-71
2022/12/23 07:31:49;;;;;;;109.10;55.28;;;;;;;5.28;100.00;100118.13;5070077;28;20020;-71
2022/12/23 07:34:14;;;;;;;112.90;55.30;;;;;;;5.09;100.00;100075.19;5068909;28;20031;-71
2022/12/23 07:36:39;;;;;;;111.10;56.90;;;;;;;5.26;100.00;100112.94;5069736;28;20032;-71
2022/12/23 07:39:05;;;;;;;113.97;56.17;;;;;;;5.24;100.00;100117.50;5069433;28;20047;-71
2022/12/23 07:41:31;;;;;;;102.93;52.70;;;;;;;5.18;100.00;100115.25;5069601;28;20033;-71
2022/12/23 07:43:56;;;;;;;99.82;52.10;;;;;;;5.17;100.00;100118.91;5069439;28;20064;-71
2022/12/23 07:46:21;;;;;;;102.82;53.78;;;;;;;5.26;100.00;100131.56;5069602;28;20577;-71
2022/12/23 07:48:47;;;;;;;97.78;55.03;;;;;;;5.18;100.00;100131.22;5069733;28;20035;-71
2022/12/23 07:51:13;;;;;;;104.35;51.30;;;;;;;5.04;100.00;100118.03;5069728;28;20545;-71
2022/12/23 07:53:38;;;;;;;97.18;50.40;;;;;;;4.98;100.00;100107.81;5069444;28;20062;-71
2022/12/23 07:56:04;;;;;;;92.72;51.65;;;;;;;5.11;100.00;100140.56;5071388;28;20052;-71
2022/12/23 07:58:29;;;;;;;92.30;49.35;;;;;;;5.19;100.00;100182.59;5068371;28;20039;-70
2022/12/23 08:01:04;;;;;;;85.43;48.78;;;;;;;5.15;100.00;100179.28;5060296;28;20030;-71
2022/12/23 08:03:29;;;;;;;95.72;50.67;;;;;;;5.07;100.00;100159.47;5073129;28;20032;-72
2022/12/23 08:06:00;;;;;;;93.25;50.55;;;;;;;5.16;100.00;100174.81;5073278;28;20028;-71
2022/12/23 08:08:25;;;;;;;97.18;52.38;;;;;;;4.93;100.00;100141.81;5060208;28;20574;-71
2022/12/23 08:10:59;;;;;;;102.47;51.50;;;;;;;5.08;100.00;100162.03;5053233;28;20040;-70
2022/12/23 08:13:25;;;;;;;93.07;50.75;;;;;;;5.04;100.00;100144.59;5052907;28;20380;-71
2022/12/23 08:15:55;;;;;;;87.18;48.25;;;;;;;5.20;100.00;100168.31;5071548;28;20028;-70
2022/12/23 08:18:20;;;;;;;97.60;52.05;;;;;;;5.13;100.00;100149.31;5072976;28;20532;-70
2022/12/23 08:20:53;;;;;;;94.47;49.45;;;;;;;5.18;100.00;100156.94;5072916;28;20044;-70
2022/12/23 08:23:18;;;;;;;97.38;51.53;;;;;;;5.05;100.00;100132.16;5072964;28;20027;-71
2022/12/23 08:25:44;;;;;;;94.53;51.80;;;;;;;5.14;100.00;100143.03;5071392;28;20040;-71
2022/12/23 08:28:09;;;;;;;89.95;50.10;;;;;;;5.09;100.00;100133.66;5070237;28;20028;-71
2022/12/23 08:30:35;;;;;;;96.63;50.83;;;;;;;5.24;100.00;100149.41;5072568;28;20046;-71
2022/12/23 08:33:00;;;;;;;94.30;48.08;;;;;;;5.27;100.00;100143.88;5072676;28;20036;-71
2022/12/23 08:35:25;;;;;;;89.78;48.88;;;;;;;5.26;100.00;100138.66;5072758;28;20082;-71
2022/12/23 08:37:51;;;;;;;91.05;47.78;;;;;;;5.31;100.00;100136.53;5072693;28;20036;-70
2022/12/23 08:40:16;;;;;;;87.30;46.25;;;;;;;5.32;100.00;100138.25;5068001;28;20881;-70
2022/12/23 08:42:42;;;;;;;103.72;49.47;;;;;;;5.33;100.00;100114.22;5068355;28;20075;-71
2022/12/23 08:45:07;;;;;;;99.57;51.00;;;;;;;5.40;100.00;100117.28;5071389;28;20416;-70
2022/12/23 08:47:33;;;;;;;94.90;49.15;;;;;;;5.33;100.00;100103.59;5071800;28;20039;-71
2022/12/23 08:49:58;;;;;;;96.90;50.25;;;;;;;5.48;100.00;100096.34;5063620;28;20025;-69
2022/12/23 08:52:24;;;;;;;99.22;52.25;;;;;;;5.57;100.00;100108.97;5067250;28;20033;-71
2022/12/23 08:54:49;;;;;;;94.35;50.67;;;;;;;5.62;100.00;100109.50;5072231;28;20066;-70
2022/12/23 08:57:14;;;;;;;100.00;51.42;;;;;;;5.66;100.00;100113.63;5072382;28;20028;-71
2022/12/23 08:59:40;;;;;;;94.57;49.88;;;;;;;5.65;100.00;100115.47;5071435;28;20024;-71
2022/12/23 09:02:05;;;;;;;92.80;48.28;;;;;;;5.69;100.00;100124.06;5071663;28;20070;-70
2022/12/23 09:04:31;;;;;;;91.45;49.50;;;;;;;5.52;100.00;100109.31;5071774;28;20020;-71
2022/12/23 09:06:56;;;;;;;89.70;49.90;;;;;;;5.68;100.00;100123.19;5071619;28;20026;-70
2022/12/23 09:09:22;;;;;;;96.25;50.35;;;;;;;5.70;100.00;100118.63;5071969;28;20064;-72
2022/12/23 09:11:47;;;;;;;88.70;48.45;;;;;;;5.72;100.00;100115.88;5070769;28;20032;-71
2022/12/23 09:14:13;;;;;;;88.10;49.63;;;;;;;5.78;100.00;100104.78;5071939;28;20037;-71
2022/12/23 09:16:38;;;;;;;88.15;47.15;;;;;;;5.81;100.00;100099.25;5071823;28;20465;-72
2022/12/23 09:19:04;;;;;;;83.38;47.00;;;;;;;5.95;100.00;100101.78;5071575;28;20153;-72
2022/12/23 09:21:29;;;;;;;89.00;48.72;;;;;;;5.85;100.00;100080.31;5071611;28;20028;-71
2022/12/23 09:23:54;;;;;;;91.90;48.08;;;;;;;6.02;100.00;100093.25;5071548;28;20036;-71
2022/12/23 09:26:26;;;;;;;101.55;48.90;;;;;;;5.95;100.00;100073.38;5071472;28;20072;-71
2022/12/23 09:28:51;;;;;;;78.63;43.83;;;;;;;6.22;100.00;100103.28;5071453;28;20082;-71
2022/12/23 09:31:17;;;;;;;81.03;44.42;;;;;;;6.16;100.00;100090.41;5071569;28;20024;-72
2022/12/23 09:33:46;;;;;;;75.03;44.28;;;;;;;6.34;100.00;100099.72;5071254;28;20044;-70
2022/12/23 09:36:12;;;;;;;79.78;41.75;;;;;;;6.26;100.00;100067.47;5071840;28;20457;-70
2022/12/23 09:38:37;;;;;;;76.63;44.22;;;;;;;6.48;100.00;100083.56;5071428;28;20092;-71
2022/12/23 09:41:18;;;;;;;78.15;43.10;;;;;;;6.36;100.00;100068.50;5071284;28;20083;-71
2022/12/23 09:44:00;;;;;;;77.13;43.75;;;;;;;6.47;100.00;100076.56;5069913;28;20041;-72
2022/12/23 09:46:30;;;;;;;75.68;43.00;;;;;;;6.35;100.00;100058.81;5071300;28;20095;-71
2022/12/23 09:49:11;;;;;;;77.53;45.70;;;;;;;6.54;100.00;100083.13;5071182;28;20429;-72
2022/12/23 09:51:37;;;;;;;75.80;42.78;;;;;;;6.54;100.00;100069.78;5071072;28;20023;-71
2022/12/23 09:54:07;;;;;;;77.88;44.85;;;;;;;6.48;100.00;100064.91;5068804;28;20045;-70
2022/12/23 09:56:53;;;;;;;79.13;45.47;;;;;;;6.55;100.00;100071.47;5070801;28;20510;-70
2022/12/23 09:59:40;;;;;;;78.07;43.45;;;;;;;6.58;100.00;100065.09;5070970;28;20091;-71
2022/12/23 10:02:27;;;;;;;78.47;45.42;;;;;;;6.56;100.00;100062.53;5070563;28;20008;-72
2022/12/23 10:05:14;;;;;;;76.43;44.88;;;;;;;6.60;100.00;100060.47;5069404;28;20039;-70
2022/12/23 10:07:47;;;;;;;72.65;42.42;;;;;;;6.64;100.00;100059.28;5070981;28;20036;-70
2022/12/23 10:10:33;;;;;;;78.05;44.35;;;;;;;6.53;100.00;100038.81;5064318;28;20032;-70
2022/12/23 10:13:02;;;;;;;82.43;45.45;;;;;;;6.68;100.00;100050.94;5083937;28;20481;-70
2022/12/23 10:15:41;;;;;;;77.05;44.35;;;;;;;6.68;100.00;100037.59;5069869;28;20055;-70
2022/12/23 10:18:22;;;;;;;84.97;46.22;;;;;;;6.69;100.00;100025.16;5063271;28;20028;-70
2022/12/23 10:20:57;;;;;;;82.55;45.15;;;;;;;6.68;100.00;100010.97;5071751;28;20524;-71
2022/12/23 10:23:42;;;;;;;86.75;49.40;;;;;;;6.79;100.00;100012.81;5071158;28;20017;-70
2022/12/23 10:26:28;;;;;;;79.47;45.70;;;;;;;6.97;100.00;100035.41;5071696;28;20119;-71
2022/12/23 10:29:19;;;;;;;81.55;46.67;;;;;;;7.02;100.00;100043.88;5071350;28;20544;-71
2022/12/23 10:31:59;;;;;;;80.03;45.15;;;;;;;7.09;100.00;100037.09;5070418;28;20036;-71
2022/12/23 10:34:43;;;;;;;86.50;46.88;;;;;;;7.16;100.00;100048.13;5062958;28;20397;-70
2022/12/23 10:37:19;;;;;;;83.38;48.08;;;;;;;7.18;100.00;100048.84;5069931;28;20047;-70
2022/12/23 10:40:01;;;;;;;86.13;47.50;;;;;;;7.20;100.00;100046.91;5070027;28;20501;-69
2022/12/23 10:42:38;;;;;;;71.47;44.53;;;;;;;7.14;100.00;100015.41;5050303;28;20045;-71
2022/12/23 10:45:18;;;;;;;76.43;45.03;;;;;;;7.33;100.00;100031.66;5051795;28;20037;-71
2022/12/23 10:48:08;;;;;;;73.40;44.00;;;;;;;7.36;100.00;100015.41;5067837;28;20028;-71
2022/12/23 10:50:52;;;;;;;76.78;45.30;;;;;;;7.20;100.00;99982.91;5062251;28;20111;-72
2022/12/23 10:53:36;;;;;;;77.90;44.22;;;;;;;7.37;100.00;100011.75;5069366;28;20040;-71
2022/12/23 10:56:02;;;;;;;;;;;;;;;7.41;100.00;100013.22;5068421;28;20033;-71
2022/12/23 10:58:28;;;;;;;70.35;42.53;;;;;;;7.44;100.00;100005.81;5060300;28;19912;-71
2022/12/23 11:00:57;;;;;;;74.28;45.33;;;;;;;7.45;100.00;100004.00;5069924;28;20033;-71
2022/12/23 11:03:27;;;;;;;78.82;46.88;;;;;;;7.48;100.00;100004.59;5068804;28;20052;-71
2022/12/23 11:05:52;;;;;;;81.50;48.20;;;;;;;7.60;100.00;100010.75;5057073;28;20223;-71
2022/12/23 11:08:22;;;;;;;79.32;46.13;;;;;;;7.35;100.00;99971.03;5070518;28;20031;-72
2022/12/23 11:10:48;;;;;;;76.10;45.45;;;;;;;7.54;100.00;99989.94;5070360;28;20028;-70
2022/12/23 11:13:44;;;;;;;80.95;47.83;;;;;;;7.51;100.00;99982.19;5068977;28;20028;-70
2022/12/23 11:16:24;;;;;;;83.22;47.75;;;;;;;7.50;100.00;99969.78;5057724;28;20041;-71
2022/12/23 11:19:01;;;;;;;85.25;49.97;;;;;;;7.57;100.00;99981.66;5070167;28;20262;-70
2022/12/23 11:21:28;;;;;;;88.75;49.80;;;;;;;7.44;100.00;99948.94;5070045;28;20110;-70
2022/12/23 11:24:12;;;;;;;83.35;49.70;;;;;;;7.63;100.00;99970.50;5070036;28;20031;-71
2022/12/23 11:26:37;;;;;;;86.10;49.90;;;;;;;7.47;100.00;99914.00;5070075;28;20114;-69
2022/12/23 11:29:11;;;;;;;86.32;51.65;;;;;;;7.65;100.00;99944.53;5070085;28;20083;-70
2022/12/23 11:31:36;;;;;;;82.40;50.85;;;;;;;7.51;100.00;99921.63;5072362;28;20032;-71
2022/12/23 11:34:23;;;;;;;93.55;55.00;;;;;;;7.58;100.00;99935.34;5073673;28;20105;-70
2022/12/23 11:36:59;;;;;;;99.13;55.35;;;;;;;7.70;100.00;99947.69;5073573;28;20082;-71
2022/12/23 11:39:36;;;;;;;96.78;53.42;;;;;;;7.65;100.00;99925.84;5073667;28;20021;-69
2022/12/23 11:42:16;;;;;;;92.00;53.78;;;;;;;7.67;100.00;99915.91;5073468;28;20135;-71